createdAt,value
2023-05-21T00:00:28.247Z,0
2023-05-21T00:01:28.945Z,0
2023-05-21T00:02:29.479Z,0
2023-05-21T00:03:30.648Z,0
2023-05-21T00:04:30.847Z,0
2023-05-21T00:05:32.058Z,0
2023-05-21T00:06:32.703Z,0
2023-05-21T00:07:32.729Z,0
2023-05-21T00:08:32.455Z,0
2023-05-21T00:09:33.150Z,0
2023-05-21T00:10:33.873Z,0
2023-05-21T00:11:34.610Z,0
2023-05-21T00:12:34.839Z,0
2023-05-21T00:13:35.411Z,0
2023-05-21T00:14:35.915Z,0
2023-05-21T00:15:37.196Z,0
2023-05-21T00:16:37.430Z,0
2023-05-21T00:17:38.248Z,0
2023-05-21T00:18:39.012Z,0
2023-05-21T00:19:39.718Z,0
2023-05-21T00:20:40.224Z,0
2023-05-21T00:21:40.948Z,0
2023-05-21T00:22:41.790Z,0
2023-05-21T00:23:42.385Z,0
2023-05-21T00:24:43.102Z,0
2023-05-21T00:25:43.789Z,0
2023-05-21T00:26:44.090Z,0
2023-05-21T00:27:44.788Z,0
2023-05-21T00:28:45.283Z,0
2023-05-21T00:29:49.719Z,0
2023-05-21T00:30:46.229Z,0
2023-05-21T00:31:46.892Z,0
2023-05-21T00:32:47.435Z,0
2023-05-21T00:33:48.218Z,0
2023-05-21T00:34:48.893Z,0
2023-05-21T00:35:49.264Z,0
2023-05-21T00:36:50.223Z,0
2023-05-21T00:37:50.941Z,0
2023-05-21T00:38:51.225Z,0
2023-05-21T00:39:50.884Z,0
2023-05-21T00:40:52.099Z,0
2023-05-21T00:41:52.803Z,0
2023-05-21T00:42:53.576Z,0
2023-05-21T00:43:54.244Z,0
2023-05-21T00:44:54.553Z,0
2023-05-21T00:45:55.768Z,0
2023-05-21T00:46:55.546Z,0
2023-05-21T00:47:56.532Z,0
2023-05-21T00:48:57.557Z,0
2023-05-21T00:49:57.930Z,0
2023-05-21T00:50:58.228Z,0
2023-05-21T00:51:58.763Z,0
2023-05-21T00:52:59.345Z,0
2023-05-21T00:54:00.437Z,0
2023-05-21T00:55:00.691Z,0
2023-05-21T00:56:01.993Z,0
2023-05-21T00:57:02.746Z,0
2023-05-21T00:58:03.414Z,0
2023-05-21T00:59:04.349Z,0
2023-05-21T01:00:05.297Z,0
2023-05-21T01:01:06.271Z,0
2023-05-21T01:02:07.033Z,0
2023-05-21T01:03:08.317Z,0
2023-05-21T01:04:08.285Z,0
2023-05-21T01:05:08.847Z,0
2023-05-21T01:06:09.968Z,0
2023-05-21T01:07:10.743Z,0
2023-05-21T01:08:11.253Z,0
2023-05-21T01:09:12.955Z,0
2023-05-21T01:10:12.646Z,0
2023-05-21T01:11:13.126Z,0
2023-05-21T01:12:13.857Z,0
2023-05-21T01:13:14.820Z,0
2023-05-21T01:14:15.503Z,0
2023-05-21T01:15:15.991Z,0
2023-05-21T01:16:16.709Z,0
2023-05-21T01:17:17.243Z,0
2023-05-21T01:18:18.041Z,0
2023-05-21T01:19:18.719Z,0
2023-05-21T01:20:20.372Z,0
2023-05-21T01:21:20.046Z,0
2023-05-21T01:22:20.799Z,0
2023-05-21T01:23:21.254Z,0
2023-05-21T01:24:21.984Z,0
2023-05-21T01:25:22.896Z,0
2023-05-21T01:26:24.037Z,0
2023-05-21T01:27:24.337Z,0
2023-05-21T01:28:24.985Z,0
2023-05-21T01:29:25.956Z,0
2023-05-21T01:30:26.707Z,0
2023-05-21T01:31:26.621Z,0
2023-05-21T01:32:27.397Z,0
2023-05-21T01:33:28.501Z,0
2023-05-21T01:34:28.603Z,0
2023-05-21T01:35:29.287Z,0
2023-05-21T01:36:30.434Z,0
2023-05-21T01:37:31.186Z,0
2023-05-21T01:38:31.905Z,0
2023-05-21T01:39:32.812Z,0
2023-05-21T01:40:33.536Z,0
2023-05-21T01:41:34.616Z,0
2023-05-21T01:42:35.406Z,0
2023-05-21T01:43:35.817Z,0
2023-05-21T01:44:36.754Z,0
2023-05-21T01:45:36.595Z,0
2023-05-21T01:46:37.621Z,0
2023-05-21T01:47:38.284Z,0
2023-05-21T01:48:38.784Z,0
2023-05-21T01:49:39.685Z,0
2023-05-21T01:50:40.355Z,0
2023-05-21T01:51:40.637Z,0
2023-05-21T01:52:41.380Z,0
2023-05-21T01:53:41.457Z,0
2023-05-21T01:54:42.119Z,0
2023-05-21T01:55:43.192Z,0
2023-05-21T01:56:43.692Z,0
2023-05-21T01:57:44.024Z,0
2023-05-21T01:58:44.521Z,0
2023-05-21T01:59:44.806Z,0
2023-05-21T02:00:45.664Z,0
2023-05-21T02:01:46.922Z,0
2023-05-21T02:02:46.600Z,0
2023-05-21T02:03:48.029Z,0
2023-05-21T02:04:48.267Z,0
2023-05-21T02:05:49.464Z,0
2023-05-21T02:06:49.351Z,0
2023-05-21T02:07:50.287Z,0
2023-05-21T02:08:50.575Z,0
2023-05-21T02:09:51.499Z,0
2023-05-21T02:10:52.000Z,0
2023-05-21T02:11:52.714Z,0
2023-05-21T02:12:53.418Z,0
2023-05-21T02:13:54.122Z,0
2023-05-21T02:14:54.617Z,0
2023-05-21T02:15:55.430Z,0
2023-05-21T02:16:55.868Z,0
2023-05-21T02:17:56.608Z,0
2023-05-21T02:18:57.633Z,0
2023-05-21T02:19:57.523Z,0
2023-05-21T02:20:58.254Z,0
2023-05-21T02:21:58.731Z,0
2023-05-21T02:22:59.474Z,0
2023-05-21T02:23:59.894Z,0
2023-05-21T02:25:00.629Z,0
2023-05-21T02:26:01.117Z,0
2023-05-21T02:27:01.882Z,0
2023-05-21T02:28:02.858Z,0
2023-05-21T02:29:03.150Z,0
2023-05-21T02:30:03.648Z,0
2023-05-21T02:31:04.121Z,0
2023-05-21T02:32:05.217Z,0
2023-05-21T02:33:06.315Z,0
2023-05-21T02:34:07.049Z,0
2023-05-21T02:35:07.514Z,0
2023-05-21T02:36:08.022Z,0
2023-05-21T02:37:08.665Z,0
2023-05-21T02:38:09.806Z,0
2023-05-21T02:39:09.500Z,0
2023-05-21T02:40:10.377Z,0
2023-05-21T02:41:11.110Z,0
2023-05-21T02:42:11.658Z,0
2023-05-21T02:43:13.530Z,0
2023-05-21T02:44:13.616Z,0
2023-05-21T02:45:14.471Z,0
2023-05-21T02:46:15.739Z,0
2023-05-21T02:47:16.490Z,0
2023-05-21T02:48:16.850Z,0
2023-05-21T02:49:16.568Z,0
2023-05-21T02:50:17.456Z,0
2023-05-21T02:51:18.182Z,0
2023-05-21T02:52:18.966Z,0
2023-05-21T02:53:20.099Z,0
2023-05-21T02:54:20.522Z,0
2023-05-21T02:55:21.755Z,0
2023-05-21T02:56:22.456Z,0
2023-05-21T02:57:22.543Z,0
2023-05-21T02:58:24.059Z,0
2023-05-21T02:59:24.757Z,0
2023-05-21T03:00:25.694Z,0
2023-05-21T03:01:26.788Z,0
2023-05-21T03:02:27.809Z,0
2023-05-21T03:03:28.549Z,0
2023-05-21T03:04:28.609Z,0
2023-05-21T03:05:29.304Z,0
2023-05-21T03:06:29.728Z,0
2023-05-21T03:07:30.413Z,0
2023-05-21T03:08:31.333Z,0
2023-05-21T03:09:32.013Z,0
2023-05-21T03:10:32.716Z,0
2023-05-21T03:11:32.976Z,0
2023-05-21T03:12:33.259Z,0
2023-05-21T03:13:34.194Z,0
2023-05-21T03:14:34.476Z,4
2023-05-21T03:15:35.846Z,4
2023-05-21T03:16:35.495Z,0
2023-05-21T03:17:36.373Z,0
2023-05-21T03:18:36.953Z,4
2023-05-21T03:19:37.736Z,0
2023-05-21T03:20:38.251Z,4
2023-05-21T03:21:38.566Z,0
2023-05-21T03:22:39.350Z,4
2023-05-21T03:23:40.109Z,4
2023-05-21T03:24:40.751Z,4
2023-05-21T03:25:42.209Z,4
2023-05-21T03:26:42.714Z,4
2023-05-21T03:27:43.201Z,4
2023-05-21T03:28:43.922Z,8
2023-05-21T03:29:45.050Z,8
2023-05-21T03:30:45.764Z,4
2023-05-21T03:31:46.938Z,8
2023-05-21T03:32:47.296Z,8
2023-05-21T03:33:47.000Z,8
2023-05-21T03:34:47.149Z,12
2023-05-21T03:35:48.321Z,12
2023-05-21T03:36:49.003Z,12
2023-05-21T03:37:49.694Z,12
2023-05-21T03:38:50.600Z,12
2023-05-21T03:39:51.137Z,12
2023-05-21T03:40:52.462Z,16
2023-05-21T03:41:53.165Z,16
2023-05-21T03:42:53.457Z,16
2023-05-21T03:43:53.767Z,20
2023-05-21T03:44:54.377Z,24
2023-05-21T03:45:55.981Z,20
2023-05-21T03:46:56.270Z,24
2023-05-21T03:47:57.156Z,24
2023-05-21T03:48:57.162Z,28
2023-05-21T03:49:57.886Z,28
2023-05-21T03:50:58.801Z,32
2023-05-21T03:51:59.755Z,36
2023-05-21T03:53:00.651Z,36
2023-05-21T03:54:01.650Z,40
2023-05-21T03:55:02.551Z,40
2023-05-21T03:56:02.306Z,44
2023-05-21T03:57:03.008Z,48
2023-05-21T03:58:03.698Z,48
2023-05-21T03:59:04.215Z,52
2023-05-21T04:00:05.141Z,56
2023-05-21T04:01:05.939Z,56
2023-05-21T04:02:06.439Z,60
2023-05-21T04:03:07.869Z,64
2023-05-21T04:04:08.884Z,64
2023-05-21T04:05:08.631Z,72
2023-05-21T04:06:08.911Z,76
2023-05-21T04:07:09.661Z,76
2023-05-21T04:08:10.152Z,84
2023-05-21T04:09:10.936Z,84
2023-05-21T04:10:11.439Z,84
2023-05-21T04:11:12.199Z,92
2023-05-21T04:12:12.676Z,92
2023-05-21T04:13:13.626Z,100
2023-05-21T04:14:14.380Z,104
2023-05-21T04:15:14.864Z,104
2023-05-21T04:16:15.511Z,108
2023-05-21T04:17:16.381Z,116
2023-05-21T04:18:16.990Z,116
2023-05-21T04:19:18.228Z,120
2023-05-21T04:20:17.990Z,124
2023-05-21T04:21:18.676Z,128
2023-05-21T04:22:19.413Z,132
2023-05-21T04:23:19.898Z,136
2023-05-21T04:24:20.850Z,144
2023-05-21T04:25:21.919Z,148
2023-05-21T04:26:21.834Z,148
2023-05-21T04:27:22.366Z,156
2023-05-21T04:28:22.859Z,160
2023-05-21T04:29:23.431Z,168
2023-05-21T04:30:24.121Z,168
2023-05-21T04:31:24.941Z,172
2023-05-21T04:32:25.461Z,180
2023-05-21T04:33:26.227Z,180
2023-05-21T04:34:27.121Z,188
2023-05-21T04:35:27.594Z,192
2023-05-21T04:36:28.380Z,196
2023-05-21T04:37:28.876Z,204
2023-05-21T04:38:29.358Z,208
2023-05-21T04:39:30.878Z,212
2023-05-21T04:40:31.346Z,220
2023-05-21T04:41:31.395Z,224
2023-05-21T04:42:31.660Z,228
2023-05-21T04:43:32.488Z,232
2023-05-21T04:44:33.361Z,240
2023-05-21T04:45:34.325Z,244
2023-05-21T04:46:35.707Z,252
2023-05-21T04:47:35.764Z,256
2023-05-21T04:49:40.224Z,268
2023-05-21T04:50:37.341Z,272
2023-05-21T04:51:37.458Z,276
2023-05-21T04:52:37.732Z,284
2023-05-21T04:53:38.246Z,288
2023-05-21T04:54:39.036Z,292
2023-05-21T04:55:39.849Z,300
2023-05-21T04:56:39.879Z,308
2023-05-21T04:57:40.141Z,312
2023-05-21T04:58:41.064Z,320
2023-05-21T04:59:41.819Z,324
2023-05-21T05:00:42.412Z,332
2023-05-21T05:01:42.968Z,336
2023-05-21T05:02:43.657Z,340
2023-05-21T05:03:45.006Z,344
2023-05-21T05:04:48.598Z,352
2023-05-21T05:05:46.572Z,356
2023-05-21T05:06:46.361Z,364
2023-05-21T05:07:47.048Z,368
2023-05-21T05:08:47.525Z,372
2023-05-21T05:09:48.459Z,376
2023-05-21T05:10:49.056Z,384
2023-05-21T05:11:49.556Z,388
2023-05-21T05:12:50.465Z,396
2023-05-21T05:13:52.027Z,400
2023-05-21T05:14:51.902Z,408
2023-05-21T05:15:55.184Z,408
2023-05-21T05:16:52.728Z,416
2023-05-21T05:17:53.427Z,424
2023-05-21T05:18:53.755Z,432
2023-05-21T05:19:53.612Z,440
2023-05-21T05:20:54.737Z,452
2023-05-21T05:21:54.878Z,460
2023-05-21T05:22:55.042Z,472
2023-05-21T05:23:54.763Z,484
2023-05-21T05:24:55.551Z,496
2023-05-21T05:25:56.380Z,508
2023-05-21T05:26:57.105Z,524
2023-05-21T05:27:57.656Z,540
2023-05-21T05:28:57.986Z,560
2023-05-21T05:29:58.487Z,572
2023-05-21T05:30:59.502Z,588
2023-05-21T05:31:59.282Z,612
2023-05-21T05:33:00.195Z,628
2023-05-21T05:34:01.214Z,648
2023-05-21T05:35:02.632Z,660
2023-05-21T05:36:02.161Z,676
2023-05-21T05:37:02.841Z,688
2023-05-21T05:38:03.332Z,700
2023-05-21T05:39:03.931Z,712
2023-05-21T05:40:04.798Z,720
2023-05-21T05:41:05.516Z,728
2023-05-21T05:42:06.209Z,732
2023-05-21T05:43:07.077Z,736
2023-05-21T05:44:09.554Z,740
2023-05-21T05:45:08.632Z,744
2023-05-21T05:46:09.461Z,744
2023-05-21T05:47:10.413Z,748
2023-05-21T05:48:11.507Z,748
2023-05-21T05:49:11.907Z,756
2023-05-21T05:50:12.613Z,756
2023-05-21T05:51:13.485Z,764
2023-05-21T05:52:13.976Z,768
2023-05-21T05:53:14.236Z,772
2023-05-21T05:54:14.734Z,780
2023-05-21T05:55:15.746Z,788
2023-05-21T05:56:16.417Z,792
2023-05-21T05:57:17.142Z,796
2023-05-21T05:58:17.654Z,804
2023-05-21T05:59:18.337Z,808
2023-05-21T06:00:19.273Z,816
2023-05-21T06:01:19.988Z,824
2023-05-21T06:02:20.461Z,832
2023-05-21T06:03:21.523Z,836
2023-05-21T06:04:22.575Z,840
2023-05-21T06:05:23.797Z,848
2023-05-21T06:07:24.292Z,860
2023-05-21T06:08:24.643Z,868
2023-05-21T06:09:25.553Z,876
2023-05-21T06:10:26.315Z,880
2023-05-21T06:11:26.636Z,888
2023-05-21T06:12:27.369Z,896
2023-05-21T06:13:28.046Z,908
2023-05-21T06:14:28.979Z,912
2023-05-21T06:15:28.479Z,920
2023-05-21T06:16:29.428Z,936
2023-05-21T06:17:29.557Z,940
2023-05-21T06:18:29.568Z,948
2023-05-21T06:19:30.489Z,964
2023-05-21T06:20:31.084Z,980
2023-05-21T06:21:31.906Z,996
2023-05-21T06:22:35.808Z,1020
2023-05-21T06:23:33.155Z,1036
2023-05-21T06:24:33.478Z,1056
2023-05-21T06:25:34.279Z,1076
2023-05-21T06:26:35.151Z,1092
2023-05-21T06:27:35.682Z,1112
2023-05-21T06:28:36.387Z,1132
2023-05-21T06:29:37.310Z,1152
2023-05-21T06:30:37.036Z,1172
2023-05-21T06:31:38.145Z,1188
2023-05-21T06:32:39.383Z,1220
2023-05-21T06:33:39.466Z,1248
2023-05-21T06:34:39.912Z,1280
2023-05-21T06:35:41.513Z,1312
2023-05-21T06:37:41.300Z,1364
2023-05-21T06:38:41.974Z,1384
2023-05-21T06:39:42.475Z,1412
2023-05-21T06:40:43.327Z,1440
2023-05-21T06:41:44.007Z,1464
2023-05-21T06:42:44.728Z,1476
2023-05-21T06:43:44.793Z,1488
2023-05-21T06:44:45.485Z,1504
2023-05-21T06:45:47.076Z,1524
2023-05-21T06:46:47.085Z,1548
2023-05-21T06:47:48.036Z,1568
2023-05-21T06:48:47.790Z,1576
2023-05-21T06:49:48.356Z,1588
2023-05-21T06:50:48.462Z,1608
2023-05-21T06:51:49.270Z,1616
2023-05-21T06:52:49.161Z,1628
2023-05-21T06:53:49.321Z,1644
2023-05-21T06:54:49.625Z,1664
2023-05-21T06:55:51.243Z,1680
2023-05-21T06:56:51.298Z,1700
2023-05-21T06:57:52.036Z,1716
2023-05-21T06:58:52.529Z,1736
2023-05-21T06:59:53.048Z,1744
2023-05-21T07:00:54.006Z,1760
2023-05-21T07:01:54.967Z,1784
2023-05-21T07:02:56.299Z,1792
2023-05-21T07:03:56.168Z,1804
2023-05-21T07:04:56.938Z,1788
2023-05-21T07:05:57.837Z,1788
2023-05-21T07:06:58.322Z,1800
2023-05-21T07:07:58.603Z,1808
2023-05-21T07:08:59.356Z,1808
2023-05-21T07:10:00.052Z,1816
2023-05-21T07:11:00.797Z,1856
2023-05-21T07:12:01.517Z,1916
2023-05-21T07:13:02.669Z,2028
2023-05-21T07:14:02.574Z,2268
2023-05-21T07:15:04.985Z,2568
2023-05-21T07:16:03.887Z,2956
2023-05-21T07:17:04.448Z,3200
2023-05-21T07:18:05.400Z,3116
2023-05-21T07:19:06.140Z,3020
2023-05-21T07:20:07.328Z,3048
2023-05-21T07:21:07.003Z,3220
2023-05-21T07:22:07.857Z,3332
2023-05-21T07:23:08.537Z,3240
2023-05-21T07:24:09.493Z,3340
2023-05-21T07:25:10.199Z,3544
2023-05-21T07:26:11.080Z,3572
2023-05-21T07:27:31.260Z,3516
2023-05-21T07:28:12.448Z,3432
2023-05-21T07:29:13.357Z,3308
2023-05-21T07:30:13.878Z,3036
2023-05-21T07:31:15.147Z,2884
2023-05-21T07:32:14.948Z,2832
2023-05-21T07:33:15.922Z,2812
2023-05-21T07:34:16.651Z,2728
2023-05-21T07:35:17.366Z,2600
2023-05-21T07:36:17.963Z,2812
2023-05-21T07:37:19.270Z,2956
2023-05-21T07:38:19.599Z,2820
2023-05-21T07:39:20.271Z,2700
2023-05-21T07:40:20.766Z,2376
2023-05-21T07:41:24.522Z,2064
2023-05-21T07:42:22.036Z,2228
2023-05-21T07:43:22.516Z,2280
2023-05-21T07:44:23.246Z,2296
2023-05-21T07:45:23.741Z,2312
2023-05-21T07:46:24.628Z,2392
2023-05-21T07:47:25.596Z,2568
2023-05-21T07:48:26.157Z,2496
2023-05-21T07:49:26.860Z,2544
2023-05-21T07:50:27.169Z,2584
2023-05-21T07:51:28.088Z,2544
2023-05-21T07:52:28.801Z,2512
2023-05-21T07:53:29.327Z,2412
2023-05-21T07:54:30.041Z,2388
2023-05-21T07:55:31.296Z,2428
2023-05-21T07:56:31.696Z,2456
2023-05-21T07:57:32.193Z,2352
2023-05-21T07:58:32.911Z,2304
2023-05-21T07:59:33.876Z,2216
2023-05-21T08:00:34.791Z,2108
2023-05-21T08:01:35.532Z,2116
2023-05-21T08:02:36.762Z,2136
2023-05-21T08:03:37.725Z,2152
2023-05-21T08:04:40.149Z,2124
2023-05-21T08:05:38.478Z,2140
2023-05-21T08:06:39.422Z,2160
2023-05-21T08:07:40.375Z,2168
2023-05-21T08:08:40.653Z,2172
2023-05-21T08:09:41.153Z,2276
2023-05-21T08:10:41.857Z,2424
2023-05-21T08:11:42.813Z,2648
2023-05-21T08:12:42.734Z,2788
2023-05-21T08:13:43.248Z,2848
2023-05-21T08:14:43.967Z,2796
2023-05-21T08:15:44.479Z,2788
2023-05-21T08:16:45.568Z,2628
2023-05-21T08:17:46.175Z,2688
2023-05-21T08:18:47.531Z,2660
2023-05-21T08:19:47.491Z,2572
2023-05-21T08:20:48.222Z,2644
2023-05-21T08:21:49.674Z,2724
2023-05-21T08:22:49.293Z,2888
2023-05-21T08:23:49.897Z,2884
2023-05-21T08:24:50.186Z,2948
2023-05-21T08:25:50.781Z,3044
2023-05-21T08:26:51.583Z,3136
2023-05-21T08:27:52.481Z,3160
2023-05-21T08:28:52.078Z,3112
2023-05-21T08:29:53.237Z,3032
2023-05-21T08:30:53.741Z,2976
2023-05-21T08:31:54.467Z,3004
2023-05-21T08:32:55.474Z,2912
2023-05-21T08:33:56.246Z,2744
2023-05-21T08:34:56.744Z,2664
2023-05-21T08:35:57.657Z,2656
2023-05-21T08:36:58.342Z,2688
2023-05-21T08:37:59.427Z,2764
2023-05-21T08:39:00.328Z,2824
2023-05-21T08:40:01.059Z,2824
2023-05-21T08:41:01.832Z,2840
2023-05-21T08:42:02.566Z,2848
2023-05-21T08:43:03.034Z,2840
2023-05-21T08:44:05.686Z,2796
2023-05-21T08:45:04.546Z,2804
2023-05-21T08:46:05.406Z,2776
2023-05-21T08:47:06.021Z,2756
2023-05-21T08:48:07.221Z,2760
2023-05-21T08:49:07.779Z,2776
2023-05-21T08:50:08.496Z,2804
2023-05-21T08:51:08.985Z,2848
2023-05-21T08:52:09.674Z,2852
2023-05-21T08:53:33.176Z,2848
2023-05-21T08:55:11.360Z,3052
2023-05-21T08:56:11.864Z,3188
2023-05-21T08:57:12.626Z,3424
2023-05-21T08:58:12.109Z,3580
2023-05-21T08:59:12.604Z,3724
2023-05-21T09:00:13.361Z,4044
2023-05-21T09:01:14.026Z,4248
2023-05-21T09:02:16.613Z,4540
2023-05-21T09:03:15.992Z,4616
2023-05-21T09:04:31.614Z,5012
2023-05-21T09:06:16.565Z,5056
2023-05-21T09:07:17.296Z,5136
2023-05-21T09:08:18.337Z,5152
2023-05-21T09:09:18.636Z,5012
2023-05-21T09:10:19.360Z,5016
2023-05-21T09:11:19.862Z,4828
2023-05-21T09:12:20.968Z,4680
2023-05-21T09:13:21.688Z,4712
2023-05-21T09:14:22.400Z,5228
2023-05-21T09:15:23.169Z,5100
2023-05-21T09:16:23.848Z,5696
2023-05-21T09:17:24.698Z,6552
2023-05-21T09:18:25.012Z,7276
2023-05-21T09:19:26.256Z,8048
2023-05-21T09:20:26.832Z,8308
2023-05-21T09:21:27.577Z,9228
2023-05-21T09:22:28.272Z,9356
2023-05-21T09:23:28.835Z,10044
2023-05-21T09:24:29.430Z,9768
2023-05-21T09:25:30.113Z,9732
2023-05-21T09:26:30.728Z,9848
2023-05-21T09:27:31.502Z,9752
2023-05-21T09:29:32.799Z,10208
2023-05-21T09:30:42.136Z,10656
2023-05-21T09:31:33.530Z,10460
2023-05-21T09:32:34.714Z,9800
2023-05-21T09:33:35.154Z,10652
2023-05-21T09:34:34.850Z,10272
2023-05-21T09:35:36.867Z,9856
2023-05-21T09:36:35.831Z,9420
2023-05-21T09:37:38.732Z,9832
2023-05-21T09:38:37.555Z,10220
2023-05-21T09:39:38.264Z,9592
2023-05-21T09:40:38.813Z,9092
2023-05-21T09:41:39.546Z,8512
2023-05-21T09:42:40.380Z,8096
2023-05-21T09:43:40.684Z,8056
2023-05-21T09:44:41.411Z,8120
2023-05-21T09:45:42.734Z,7868
2023-05-21T09:46:42.695Z,7592
2023-05-21T09:47:43.638Z,7368
2023-05-21T09:48:44.139Z,7880
2023-05-21T09:49:45.257Z,7652
2023-05-21T09:50:46.539Z,7684
2023-05-21T09:51:46.272Z,7988
2023-05-21T09:52:47.921Z,7672
2023-05-21T09:53:48.046Z,6956
2023-05-21T09:54:48.143Z,6344
2023-05-21T09:55:48.654Z,6748
2023-05-21T09:56:49.337Z,6204
2023-05-21T09:57:50.981Z,5744
2023-05-21T09:58:50.560Z,5092
2023-05-21T09:59:51.426Z,4600
2023-05-21T10:00:52.380Z,4272
2023-05-21T10:01:52.954Z,3980
2023-05-21T10:02:53.902Z,3800
2023-05-21T10:03:56.637Z,3632
2023-05-21T10:04:55.701Z,3472
2023-05-21T10:05:55.665Z,3448
2023-05-21T10:06:55.445Z,3288
2023-05-21T10:07:56.612Z,3280
2023-05-21T10:08:57.490Z,3352
2023-05-21T10:09:58.192Z,3184
2023-05-21T10:10:59.157Z,3136
2023-05-21T10:11:59.918Z,3168
2023-05-21T10:13:00.871Z,3092
2023-05-21T10:14:01.594Z,3048
2023-05-21T10:15:01.710Z,2848
2023-05-21T10:16:02.339Z,2832
2023-05-21T10:17:02.931Z,2852
2023-05-21T10:18:03.555Z,2780
2023-05-21T10:19:04.060Z,2748
2023-05-21T10:20:04.648Z,2600
2023-05-21T10:21:05.384Z,2412
2023-05-21T10:22:05.959Z,2400
2023-05-21T10:23:06.516Z,2348
2023-05-21T10:24:07.670Z,2308
2023-05-21T10:25:08.167Z,2308
2023-05-21T10:26:08.637Z,2260
2023-05-21T10:27:09.555Z,2264
2023-05-21T10:28:10.289Z,2304
2023-05-21T10:29:10.947Z,2328
2023-05-21T10:30:11.216Z,2332
2023-05-21T10:31:12.395Z,2308
2023-05-21T10:32:13.717Z,2304
2023-05-21T10:33:14.134Z,2312
2023-05-21T10:34:13.745Z,2332
2023-05-21T10:35:14.301Z,2336
2023-05-21T10:36:14.608Z,2344
2023-05-21T10:37:15.453Z,2324
2023-05-21T10:38:16.150Z,2328
2023-05-21T10:39:17.197Z,2364
2023-05-21T10:40:18.118Z,2416
2023-05-21T10:41:18.637Z,2476
2023-05-21T10:42:19.565Z,2628
2023-05-21T10:43:20.533Z,2920
2023-05-21T10:44:21.469Z,3088
2023-05-21T10:45:22.373Z,3308
2023-05-21T10:46:23.258Z,3308
2023-05-21T10:47:23.774Z,2904
2023-05-21T10:48:24.338Z,2796
2023-05-21T10:49:24.797Z,2760
2023-05-21T10:50:25.334Z,2896
2023-05-21T10:51:25.716Z,2908
2023-05-21T10:52:26.507Z,3068
2023-05-21T10:53:27.210Z,3460
2023-05-21T10:54:27.996Z,4024
2023-05-21T10:55:28.797Z,3956
2023-05-21T10:56:29.545Z,4120
2023-05-21T10:57:30.451Z,4428
2023-05-21T10:58:32.318Z,4520
2023-05-21T10:59:31.734Z,4316
2023-05-21T11:00:32.276Z,4492
2023-05-21T11:01:33.278Z,4676
2023-05-21T11:02:34.015Z,4720
2023-05-21T11:03:37.333Z,4844
2023-05-21T11:04:34.498Z,4756
2023-05-21T11:05:35.199Z,4752
2023-05-21T11:06:36.101Z,4404
2023-05-21T11:07:36.798Z,4272
2023-05-21T11:08:37.380Z,4000
2023-05-21T11:09:38.023Z,4244
2023-05-21T11:10:39.241Z,4092
2023-05-21T11:11:39.140Z,4584
2023-05-21T11:12:40.037Z,4860
2023-05-21T11:13:40.958Z,4884
2023-05-21T11:14:41.991Z,4992
2023-05-21T11:15:41.893Z,5108
2023-05-21T11:16:42.813Z,4992
2023-05-21T11:17:43.676Z,5300
2023-05-21T11:18:44.261Z,5168
2023-05-21T11:19:45.634Z,4904
2023-05-21T11:20:45.313Z,4676
2023-05-21T11:21:45.824Z,5068
2023-05-21T11:22:46.224Z,5396
2023-05-21T11:23:46.905Z,5020
2023-05-21T11:24:49.936Z,5048
2023-05-21T11:25:48.573Z,5180
2023-05-21T11:26:49.298Z,5040
2023-05-21T11:27:49.846Z,5108
2023-05-21T11:28:50.601Z,5600
2023-05-21T11:29:51.270Z,5924
2023-05-21T11:30:52.478Z,5920
2023-05-21T11:31:52.569Z,6128
2023-05-21T11:32:53.255Z,5628
2023-05-21T11:33:54.286Z,5048
2023-05-21T11:34:54.986Z,4160
2023-05-21T11:35:55.495Z,5260
2023-05-21T11:36:56.214Z,5056
2023-05-21T11:37:57.118Z,5064
2023-05-21T11:38:57.590Z,4968
2023-05-21T11:39:58.918Z,3784
2023-05-21T11:40:59.642Z,3468
2023-05-21T11:42:03.209Z,3576
2023-05-21T11:43:01.577Z,3900
2023-05-21T11:44:02.548Z,4460
2023-05-21T11:45:03.049Z,4984
2023-05-21T11:46:03.633Z,4720
2023-05-21T11:47:04.960Z,4608
2023-05-21T11:48:05.346Z,4140
2023-05-21T11:49:05.905Z,3956
2023-05-21T11:50:06.898Z,3500
2023-05-21T11:51:07.907Z,3724
2023-05-21T11:52:08.476Z,3792
2023-05-21T11:53:09.160Z,3972
2023-05-21T11:54:09.443Z,3956
2023-05-21T11:55:10.201Z,4264
2023-05-21T11:56:09.863Z,4320
2023-05-21T11:57:10.579Z,4404
2023-05-21T11:58:11.335Z,4500
2023-05-21T11:59:12.843Z,4556
2023-05-21T12:00:13.135Z,4824
2023-05-21T12:01:13.426Z,5144
2023-05-21T12:02:14.139Z,5488
2023-05-21T12:03:15.118Z,5388
2023-05-21T12:04:15.379Z,5448
2023-05-21T12:05:18.333Z,5408
2023-05-21T12:06:16.268Z,5508
2023-05-21T12:07:16.806Z,5756
2023-05-21T12:08:17.343Z,5844
2023-05-21T12:09:18.044Z,5828
2023-05-21T12:10:18.879Z,5800
2023-05-21T12:11:18.738Z,6012
2023-05-21T12:12:19.027Z,5672
2023-05-21T12:13:19.756Z,6088
2023-05-21T12:14:20.763Z,5668
2023-05-21T12:15:20.976Z,5584
2023-05-21T12:16:21.098Z,5596
2023-05-21T12:17:21.896Z,5600
2023-05-21T12:18:22.862Z,5880
2023-05-21T12:19:23.773Z,5972
2023-05-21T12:20:24.678Z,5936
2023-05-21T12:21:25.204Z,5688
2023-05-21T12:22:26.119Z,6180
2023-05-21T12:23:26.803Z,5632
2023-05-21T12:24:27.111Z,5616
2023-05-21T12:25:28.001Z,5416
2023-05-21T12:26:28.901Z,4980
2023-05-21T12:27:29.572Z,4132
2023-05-21T12:28:30.598Z,2696
2023-05-21T12:29:31.556Z,5500
2023-05-21T12:30:32.457Z,5452
2023-05-21T12:31:32.422Z,5036
2023-05-21T12:32:33.470Z,5716
2023-05-21T12:33:36.421Z,5284
2023-05-21T12:34:35.326Z,5488
2023-05-21T12:35:36.550Z,5512
2023-05-21T12:36:37.148Z,5164
2023-05-21T12:37:37.685Z,5188
2023-05-21T12:38:38.161Z,2388
2023-05-21T12:39:38.703Z,4876
2023-05-21T12:40:40.147Z,4608
2023-05-21T12:41:39.542Z,4448
2023-05-21T12:42:39.894Z,3540
2023-05-21T12:43:40.706Z,3792
2023-05-21T12:44:42.787Z,4072
2023-05-21T12:45:41.439Z,4276
2023-05-21T12:46:42.864Z,4548
2023-05-21T12:47:42.721Z,4128
2023-05-21T12:48:43.297Z,4336
2023-05-21T12:49:43.840Z,5252
2023-05-21T12:50:45.395Z,5592
2023-05-21T12:51:44.880Z,5876
2023-05-21T12:52:45.161Z,5936
2023-05-21T12:53:45.682Z,5836
2023-05-21T12:54:46.209Z,5820
2023-05-21T12:55:47.311Z,5912
2023-05-21T12:56:48.198Z,5796
2023-05-21T12:57:49.157Z,5808
2023-05-21T12:58:49.663Z,5712
2023-05-21T12:59:50.388Z,5660
2023-05-21T13:00:50.976Z,5624
2023-05-21T13:01:52.044Z,5628
2023-05-21T13:02:52.617Z,5644
2023-05-21T13:03:52.237Z,5576
2023-05-21T13:04:52.801Z,5580
2023-05-21T13:05:53.530Z,5556
2023-05-21T13:06:53.642Z,5516
2023-05-21T13:07:54.131Z,5416
2023-05-21T13:08:55.638Z,5416
2023-05-21T13:09:55.939Z,5348
2023-05-21T13:10:56.642Z,5348
2023-05-21T13:11:57.383Z,5368
2023-05-21T13:12:58.079Z,5392
2023-05-21T13:13:58.580Z,5448
2023-05-21T13:14:59.470Z,5420
2023-05-21T13:16:00.207Z,5296
2023-05-21T13:17:00.523Z,5228
2023-05-21T13:18:03.356Z,5212
2023-05-21T13:19:02.453Z,5056
2023-05-21T13:20:02.858Z,4992
2023-05-21T13:21:03.791Z,4964
2023-05-21T13:22:04.322Z,4948
2023-05-21T13:23:06.297Z,4800
2023-05-21T13:24:05.722Z,4764
2023-05-21T13:25:06.829Z,4792
2023-05-21T13:26:06.824Z,4760
2023-05-21T13:27:07.322Z,4752
2023-05-21T13:28:07.823Z,4632
2023-05-21T13:29:08.727Z,4592
2023-05-21T13:30:09.764Z,4560
2023-05-21T13:31:10.161Z,4552
2023-05-21T13:32:11.033Z,4488
2023-05-21T13:33:12.390Z,4408
2023-05-21T13:34:13.267Z,4280
2023-05-21T13:35:12.978Z,4152
2023-05-21T13:36:13.512Z,3788
2023-05-21T13:37:14.192Z,4292
2023-05-21T13:38:14.690Z,4064
2023-05-21T13:39:15.587Z,4048
2023-05-21T13:40:16.498Z,4204
2023-05-21T13:41:16.638Z,1776
2023-05-21T13:42:17.138Z,3644
2023-05-21T13:43:18.057Z,3416
2023-05-21T13:44:18.585Z,3392
2023-05-21T13:45:19.270Z,3436
2023-05-21T13:46:20.114Z,3460
2023-05-21T13:47:21.211Z,3620
2023-05-21T13:48:21.650Z,3492
2023-05-21T13:49:21.373Z,3400
2023-05-21T13:50:22.672Z,3448
2023-05-21T13:51:44.707Z,3256
2023-05-21T13:52:23.497Z,3192
2023-05-21T13:53:23.865Z,3420
2023-05-21T13:54:24.788Z,3292
2023-05-21T13:55:24.714Z,3420
2023-05-21T13:56:25.731Z,3380
2023-05-21T13:57:26.533Z,3320
2023-05-21T13:58:27.476Z,3472
2023-05-21T13:59:29.286Z,3488
2023-05-21T14:00:29.645Z,3632
2023-05-21T14:01:30.127Z,3620